Filadelfia, Brazil
Current Conditions -  °F | °C
As of 4:15 AM on Friday 31 Oct 2014 (Local Time) from SBIZ Reporting Station
Scattered Clouds Scattered Clouds  
Wind Chill: 75°   Ceiling: Unl
Heat Index: 75°   Visibility: 5mi
Dew Point: 70°   Wind: 5mph
Humidity: 83%   Direction: 100°E
Pressure: 29.83"   Gusts: NA
Location:  7.34°S, 47.49°W
Report Text: SBIZ 310715Z 10004KT 8000 SCT015 SCT070 24/21 Q1010
Loading
Personal Weather Stations






























Interactive Weather Map
Tropical Storm Tracking
New forecast layout! Learn more

10-Day Weather Forecast

Advertisements
Track Severe Weather on mobile